sensor_id;sensor_type;location;lat;lon;timestamp;temperature;humidity
8002;DHT22;4046;48.774;8.732;2023-11-21T00:00:00;23.30;84.30
8002;DHT22;4046;48.774;8.732;2023-11-21T00:02:27;23.30;84.30
8002;DHT22;4046;48.774;8.732;2023-11-21T00:04:53;23.30;84.30
8002;DHT22;4046;48.774;8.732;2023-11-21T00:07:19;23.30;84.30
8002;DHT22;4046;48.774;8.732;2023-11-21T00:09:47;23.30;84.30
8002;DHT22;4046;48.774;8.732;2023-11-21T00:12:13;23.30;84.20
8002;DHT22;4046;48.774;8.732;2023-11-21T00:14:40;23.30;84.20
8002;DHT22;4046;48.774;8.732;2023-11-21T00:17:06;23.30;84.30
8002;DHT22;4046;48.774;8.732;2023-11-21T00:19:32;23.40;84.40
8002;DHT22;4046;48.774;8.732;2023-11-21T00:21:58;23.30;84.30
8002;DHT22;4046;48.774;8.732;2023-11-21T00:24:25;23.30;84.30
8002;DHT22;4046;48.774;8.732;2023-11-21T00:26:51;23.30;84.30
8002;DHT22;4046;48.774;8.732;2023-11-21T00:29:18;23.30;84.30
8002;DHT22;4046;48.774;8.732;2023-11-21T00:31:44;23.30;84.30
8002;DHT22;4046;48.774;8.732;2023-11-21T00:34:12;23.30;84.20
8002;DHT22;4046;48.774;8.732;2023-11-21T00:36:38;23.30;84.30
8002;DHT22;4046;48.774;8.732;2023-11-21T00:39:04;23.30;84.30
8002;DHT22;4046;48.774;8.732;2023-11-21T00:41:31;23.30;84.20
8002;DHT22;4046;48.774;8.732;2023-11-21T00:43:57;23.30;84.20
8002;DHT22;4046;48.774;8.732;2023-11-21T00:46:25;23.30;84.30
8002;DHT22;4046;48.774;8.732;2023-11-21T00:48:52;23.30;84.20
8002;DHT22;4046;48.774;8.732;2023-11-21T00:51:20;23.30;84.20
8002;DHT22;4046;48.774;8.732;2023-11-21T00:53:46;23.30;84.20
8002;DHT22;4046;48.774;8.732;2023-11-21T00:56:12;23.30;84.20
8002;DHT22;4046;48.774;8.732;2023-11-21T00:58:39;23.30;84.20
8002;DHT22;4046;48.774;8.732;2023-11-21T01:01:08;23.30;84.20
8002;DHT22;4046;48.774;8.732;2023-11-21T01:03:34;23.30;84.20
8002;DHT22;4046;48.774;8.732;2023-11-21T01:05:59;23.30;84.20
8002;DHT22;4046;48.774;8.732;2023-11-21T01:08:25;23.20;84.10
8002;DHT22;4046;48.774;8.732;2023-11-21T01:10:51;23.30;84.30
8002;DHT22;4046;48.774;8.732;2023-11-21T01:13:17;23.30;84.30
8002;DHT22;4046;48.774;8.732;2023-11-21T01:15:42;23.30;84.30
8002;DHT22;4046;48.774;8.732;2023-11-21T01:18:08;23.30;84.30
8002;DHT22;4046;48.774;8.732;2023-11-21T01:20:34;23.30;84.30
8002;DHT22;4046;48.774;8.732;2023-11-21T01:23:00;23.30;84.20
8002;DHT22;4046;48.774;8.732;2023-11-21T01:25:26;23.30;84.20
8002;DHT22;4046;48.774;8.732;2023-11-21T01:27:52;23.30;84.20
8002;DHT22;4046;48.774;8.732;2023-11-21T01:30:18;23.40;84.40
8002;DHT22;4046;48.774;8.732;2023-11-21T01:32:44;23.30;84.20
8002;DHT22;4046;48.774;8.732;2023-11-21T01:35:10;23.30;84.20
8002;DHT22;4046;48.774;8.732;2023-11-21T01:37:36;23.30;84.20
8002;DHT22;4046;48.774;8.732;2023-11-21T01:40:03;23.30;84.20
8002;DHT22;4046;48.774;8.732;2023-11-21T01:42:33;23.30;84.20
8002;DHT22;4046;48.774;8.732;2023-11-21T01:45:00;23.30;84.20
8002;DHT22;4046;48.774;8.732;2023-11-21T01:47:34;23.30;84.20
8002;DHT22;4046;48.774;8.732;2023-11-21T01:50:02;23.30;84.20
8002;DHT22;4046;48.774;8.732;2023-11-21T01:52:31;23.20;84.20
8002;DHT22;4046;48.774;8.732;2023-11-21T01:54:58;23.30;84.30
8002;DHT22;4046;48.774;8.732;2023-11-21T01:57:24;23.30;84.20
8002;DHT22;4046;48.774;8.732;2023-11-21T01:59:51;23.30;84.20
8002;DHT22;4046;48.774;8.732;2023-11-21T02:02:19;23.20;84.10
8002;DHT22;4046;48.774;8.732;2023-11-21T02:04:45;23.20;84.10
8002;DHT22;4046;48.774;8.732;2023-11-21T02:07:11;23.20;84.10
8002;DHT22;4046;48.774;8.732;2023-11-21T02:09:37;23.20;84.20
8002;DHT22;4046;48.774;8.732;2023-11-21T02:12:04;23.20;84.10
8002;DHT22;4046;48.774;8.732;2023-11-21T02:14:30;23.30;84.20
8002;DHT22;4046;48.774;8.732;2023-11-21T02:16:57;23.20;84.10
8002;DHT22;4046;48.774;8.732;2023-11-21T02:19:23;23.30;84.20
8002;DHT22;4046;48.774;8.732;2023-11-21T02:21:52;23.20;84.10
8002;DHT22;4046;48.774;8.732;2023-11-21T02:24:23;23.30;84.30
8002;DHT22;4046;48.774;8.732;2023-11-21T02:26:50;23.20;84.10
8002;DHT22;4046;48.774;8.732;2023-11-21T02:29:19;23.20;84.10
8002;DHT22;4046;48.774;8.732;2023-11-21T02:31:50;23.30;84.20
8002;DHT22;4046;48.774;8.732;2023-11-21T02:34:17;23.20;84.10
8002;DHT22;4046;48.774;8.732;2023-11-21T02:36:44;23.20;84.10
8002;DHT22;4046;48.774;8.732;2023-11-21T02:39:10;23.20;84.10
8002;DHT22;4046;48.774;8.732;2023-11-21T02:41:37;23.20;84.10
8002;DHT22;4046;48.774;8.732;2023-11-21T02:44:04;23.20;84.10
8002;DHT22;4046;48.774;8.732;2023-11-21T02:46:35;23.20;84.10
8002;DHT22;4046;48.774;8.732;2023-11-21T02:49:02;23.20;84.10
8002;DHT22;4046;48.774;8.732;2023-11-21T02:51:27;23.40;84.30
8002;DHT22;4046;48.774;8.732;2023-11-21T02:53:54;23.20;84.10
8002;DHT22;4046;48.774;8.732;2023-11-21T02:56:19;23.20;84.10
8002;DHT22;4046;48.774;8.732;2023-11-21T02:58:45;23.30;84.20
8002;DHT22;4046;48.774;8.732;2023-11-21T03:01:11;23.20;84.10
8002;DHT22;4046;48.774;8.732;2023-11-21T03:03:39;23.20;84.10
8002;DHT22;4046;48.774;8.732;2023-11-21T03:06:06;23.20;84.10
8002;DHT22;4046;48.774;8.732;2023-11-21T03:08:32;23.20;84.10
8002;DHT22;4046;48.774;8.732;2023-11-21T03:10:58;23.20;84.10
8002;DHT22;4046;48.774;8.732;2023-11-21T03:13:24;23.20;84.10
8002;DHT22;4046;48.774;8.732;2023-11-21T03:15:50;23.20;84.10
8002;DHT22;4046;48.774;8.732;2023-11-21T03:18:15;23.20;84.10
8002;DHT22;4046;48.774;8.732;2023-11-21T03:20:43;23.20;84.10
8002;DHT22;4046;48.774;8.732;2023-11-21T03:23:11;23.20;84.10
8002;DHT22;4046;48.774;8.732;2023-11-21T03:25:37;23.20;84.10
8002;DHT22;4046;48.774;8.732;2023-11-21T03:28:03;23.20;84.10
8002;DHT22;4046;48.774;8.732;2023-11-21T03:30:29;23.20;84.10
8002;DHT22;4046;48.774;8.732;2023-11-21T03:32:55;23.20;84.10
8002;DHT22;4046;48.774;8.732;2023-11-21T03:35:21;23.20;84.10
8002;DHT22;4046;48.774;8.732;2023-11-21T03:37:47;23.20;84.10
8002;DHT22;4046;48.774;8.732;2023-11-21T03:40:13;23.20;84.10
8002;DHT22;4046;48.774;8.732;2023-11-21T03:42:39;23.20;84.10
8002;DHT22;4046;48.774;8.732;2023-11-21T03:45:06;23.20;84.10
8002;DHT22;4046;48.774;8.732;2023-11-21T03:47:31;23.20;84.10
8002;DHT22;4046;48.774;8.732;2023-11-21T03:49:57;23.20;84.10
8002;DHT22;4046;48.774;8.732;2023-11-21T03:52:24;23.20;84.10
8002;DHT22;4046;48.774;8.732;2023-11-21T03:54:50;23.20;84.10
8002;DHT22;4046;48.774;8.732;2023-11-21T03:57:15;23.20;84.10
8002;DHT22;4046;48.774;8.732;2023-11-21T03:59:42;23.20;84.10
8002;DHT22;4046;48.774;8.732;2023-11-21T04:02:08;23.20;84.10
8002;DHT22;4046;48.774;8.732;2023-11-21T04:04:35;23.20;84.10
8002;DHT22;4046;48.774;8.732;2023-11-21T04:07:01;23.40;84.30
8002;DHT22;4046;48.774;8.732;2023-11-21T04:09:27;23.20;84.10
8002;DHT22;4046;48.774;8.732;2023-11-21T04:11:53;23.20;84.10
8002;DHT22;4046;48.774;8.732;2023-11-21T04:14:20;23.20;84.00
8002;DHT22;4046;48.774;8.732;2023-11-21T04:16:45;23.20;84.10
8002;DHT22;4046;48.774;8.732;2023-11-21T04:19:11;23.30;84.10
8002;DHT22;4046;48.774;8.732;2023-11-21T04:21:41;23.20;84.10
8002;DHT22;4046;48.774;8.732;2023-11-21T04:24:07;23.20;84.00
8002;DHT22;4046;48.774;8.732;2023-11-21T04:26:32;23.20;84.00
8002;DHT22;4046;48.774;8.732;2023-11-21T04:28:58;23.20;84.10
8002;DHT22;4046;48.774;8.732;2023-11-21T04:31:24;23.20;84.10
8002;DHT22;4046;48.774;8.732;2023-11-21T04:33:50;23.20;84.00
8002;DHT22;4046;48.774;8.732;2023-11-21T04:36:15;23.20;84.10
8002;DHT22;4046;48.774;8.732;2023-11-21T04:38:41;23.20;84.00
8002;DHT22;4046;48.774;8.732;2023-11-21T04:41:08;23.20;84.00
8002;DHT22;4046;48.774;8.732;2023-11-21T04:43:33;23.20;84.00
8002;DHT22;4046;48.774;8.732;2023-11-21T04:45:59;23.20;84.00
8002;DHT22;4046;48.774;8.732;2023-11-21T04:48:25;23.30;84.10
8002;DHT22;4046;48.774;8.732;2023-11-21T04:50:51;23.20;84.00
8002;DHT22;4046;48.774;8.732;2023-11-21T04:53:17;23.30;84.10
8002;DHT22;4046;48.774;8.732;2023-11-21T04:55:43;23.20;84.00
8002;DHT22;4046;48.774;8.732;2023-11-21T04:58:09;23.20;84.10
8002;DHT22;4046;48.774;8.732;2023-11-21T05:00:35;23.20;84.00
8002;DHT22;4046;48.774;8.732;2023-11-21T05:03:02;23.20;84.10
8002;DHT22;4046;48.774;8.732;2023-11-21T05:05:29;23.20;84.00
8002;DHT22;4046;48.774;8.732;2023-11-21T05:07:59;23.20;84.00
8002;DHT22;4046;48.774;8.732;2023-11-21T05:10:25;23.20;84.00
8002;DHT22;4046;48.774;8.732;2023-11-21T05:12:50;23.20;84.00
8002;DHT22;4046;48.774;8.732;2023-11-21T05:15:17;23.20;84.00
8002;DHT22;4046;48.774;8.732;2023-11-21T05:17:44;23.20;84.00
8002;DHT22;4046;48.774;8.732;2023-11-21T05:20:14;23.20;84.00
8002;DHT22;4046;48.774;8.732;2023-11-21T05:22:43;23.20;84.00
8002;DHT22;4046;48.774;8.732;2023-11-21T05:25:09;23.40;84.20
8002;DHT22;4046;48.774;8.732;2023-11-21T05:27:36;23.20;84.70
8002;DHT22;4046;48.774;8.732;2023-11-21T05:30:04;23.20;84.00
8002;DHT22;4046;48.774;8.732;2023-11-21T05:32:31;23.20;84.00
8002;DHT22;4046;48.774;8.732;2023-11-21T05:34:57;23.20;84.00
8002;DHT22;4046;48.774;8.732;2023-11-21T05:37:23;23.20;84.00
8002;DHT22;4046;48.774;8.732;2023-11-21T05:39:49;23.20;84.00
8002;DHT22;4046;48.774;8.732;2023-11-21T05:42:15;23.20;84.70
8002;DHT22;4046;48.774;8.732;2023-11-21T05:44:42;23.20;83.90
8002;DHT22;4046;48.774;8.732;2023-11-21T05:47:11;23.20;83.90
8002;DHT22;4046;48.774;8.732;2023-11-21T05:49:37;23.20;83.90
8002;DHT22;4046;48.774;8.732;2023-11-21T05:52:02;23.20;84.00
8002;DHT22;4046;48.774;8.732;2023-11-21T05:54:28;23.20;83.90
8002;DHT22;4046;48.774;8.732;2023-11-21T05:56:54;23.20;83.90
8002;DHT22;4046;48.774;8.732;2023-11-21T05:59:20;23.20;84.00
8002;DHT22;4046;48.774;8.732;2023-11-21T06:01:46;23.20;84.00
8002;DHT22;4046;48.774;8.732;2023-11-21T06:04:13;23.20;83.90
8002;DHT22;4046;48.774;8.732;2023-11-21T06:06:39;23.20;84.00
8002;DHT22;4046;48.774;8.732;2023-11-21T06:09:04;23.20;84.00
8002;DHT22;4046;48.774;8.732;2023-11-21T06:11:32;23.20;83.90
8002;DHT22;4046;48.774;8.732;2023-11-21T06:13:57;23.20;83.90
8002;DHT22;4046;48.774;8.732;2023-11-21T06:16:23;23.20;83.90
8002;DHT22;4046;48.774;8.732;2023-11-21T06:18:49;23.20;83.90
8002;DHT22;4046;48.774;8.732;2023-11-21T06:21:15;23.20;83.90
8002;DHT22;4046;48.774;8.732;2023-11-21T06:23:42;23.20;83.90
8002;DHT22;4046;48.774;8.732;2023-11-21T06:26:08;23.20;84.00
8002;DHT22;4046;48.774;8.732;2023-11-21T06:28:35;23.20;83.90
8002;DHT22;4046;48.774;8.732;2023-11-21T06:31:01;23.20;83.90
8002;DHT22;4046;48.774;8.732;2023-11-21T06:33:34;23.20;83.90
8002;DHT22;4046;48.774;8.732;2023-11-21T06:35:59;23.20;83.90
8002;DHT22;4046;48.774;8.732;2023-11-21T06:38:28;23.20;83.90
8002;DHT22;4046;48.774;8.732;2023-11-21T06:40:58;23.20;83.90
8002;DHT22;4046;48.774;8.732;2023-11-21T06:43:24;23.20;83.90
8002;DHT22;4046;48.774;8.732;2023-11-21T06:45:50;23.20;83.90
8002;DHT22;4046;48.774;8.732;2023-11-21T06:48:15;23.20;83.90
8002;DHT22;4046;48.774;8.732;2023-11-21T06:50:41;23.20;83.90
8002;DHT22;4046;48.774;8.732;2023-11-21T06:53:07;23.20;83.90
8002;DHT22;4046;48.774;8.732;2023-11-21T06:55:35;23.20;83.90
8002;DHT22;4046;48.774;8.732;2023-11-21T06:58:01;23.20;83.90
8002;DHT22;4046;48.774;8.732;2023-11-21T07:00:26;23.20;83.90
8002;DHT22;4046;48.774;8.732;2023-11-21T07:02:55;23.20;83.90
8002;DHT22;4046;48.774;8.732;2023-11-21T07:05:22;23.20;83.90
8002;DHT22;4046;48.774;8.732;2023-11-21T07:07:48;23.20;83.90
8002;DHT22;4046;48.774;8.732;2023-11-21T07:10:15;23.20;83.90
8002;DHT22;4046;48.774;8.732;2023-11-21T07:12:41;23.20;83.90
8002;DHT22;4046;48.774;8.732;2023-11-21T07:15:07;23.20;83.80
8002;DHT22;4046;48.774;8.732;2023-11-21T07:17:37;23.20;83.90
8002;DHT22;4046;48.774;8.732;2023-11-21T07:20:05;23.20;83.90
8002;DHT22;4046;48.774;8.732;2023-11-21T07:22:32;23.20;83.90
8002;DHT22;4046;48.774;8.732;2023-11-21T07:24:57;23.40;84.10
8002;DHT22;4046;48.774;8.732;2023-11-21T07:27:23;23.20;83.90
8002;DHT22;4046;48.774;8.732;2023-11-21T07:29:49;23.20;83.90
8002;DHT22;4046;48.774;8.732;2023-11-21T07:32:15;23.20;84.60
8002;DHT22;4046;48.774;8.732;2023-11-21T07:34:41;23.30;83.90
8002;DHT22;4046;48.774;8.732;2023-11-21T07:37:07;23.20;83.90
8002;DHT22;4046;48.774;8.732;2023-11-21T07:39:35;23.20;83.80
8002;DHT22;4046;48.774;8.732;2023-11-21T07:42:02;23.20;83.90
8002;DHT22;4046;48.774;8.732;2023-11-21T07:44:28;23.20;83.90
8002;DHT22;4046;48.774;8.732;2023-11-21T07:46:54;23.20;83.80
8002;DHT22;4046;48.774;8.732;2023-11-21T07:49:24;23.20;84.60
8002;DHT22;4046;48.774;8.732;2023-11-21T07:51:50;23.20;83.80
8002;DHT22;4046;48.774;8.732;2023-11-21T07:54:16;23.20;83.80
8002;DHT22;4046;48.774;8.732;2023-11-21T07:56:42;23.20;83.80
8002;DHT22;4046;48.774;8.732;2023-11-21T07:59:08;23.20;83.80
8002;DHT22;4046;48.774;8.732;2023-11-21T08:01:34;23.20;83.80
8002;DHT22;4046;48.774;8.732;2023-11-21T08:04:00;23.20;83.80
8002;DHT22;4046;48.774;8.732;2023-11-21T08:06:29;23.20;83.80
8002;DHT22;4046;48.774;8.732;2023-11-21T08:08:56;23.20;83.80
8002;DHT22;4046;48.774;8.732;2023-11-21T08:11:22;23.20;83.80
8002;DHT22;4046;48.774;8.732;2023-11-21T08:13:48;23.20;83.80
8002;DHT22;4046;48.774;8.732;2023-11-21T08:16:14;23.20;83.80
8002;DHT22;4046;48.774;8.732;2023-11-21T08:18:40;23.50;84.10
8002;DHT22;4046;48.774;8.732;2023-11-21T08:21:06;23.20;83.80
8002;DHT22;4046;48.774;8.732;2023-11-21T08:23:33;23.20;83.80
8002;DHT22;4046;48.774;8.732;2023-11-21T08:26:00;23.30;83.80
8002;DHT22;4046;48.774;8.732;2023-11-21T08:28:27;23.30;83.80
8002;DHT22;4046;48.774;8.732;2023-11-21T08:30:53;23.30;83.80
8002;DHT22;4046;48.774;8.732;2023-11-21T08:33:19;23.30;83.70
8002;DHT22;4046;48.774;8.732;2023-11-21T08:35:45;23.30;83.70
8002;DHT22;4046;48.774;8.732;2023-11-21T08:38:12;23.30;83.70
8002;DHT22;4046;48.774;8.732;2023-11-21T08:40:38;23.40;83.70
8002;DHT22;4046;48.774;8.732;2023-11-21T08:43:04;23.40;83.70
8002;DHT22;4046;48.774;8.732;2023-11-21T08:45:33;23.40;83.60
8002;DHT22;4046;48.774;8.732;2023-11-21T08:48:00;23.40;83.70
8002;DHT22;4046;48.774;8.732;2023-11-21T08:50:26;23.30;83.60
8002;DHT22;4046;48.774;8.732;2023-11-21T08:52:51;23.30;83.60
8002;DHT22;4046;48.774;8.732;2023-11-21T08:55:17;23.30;83.60
8002;DHT22;4046;48.774;8.732;2023-11-21T08:57:45;23.30;83.60
8002;DHT22;4046;48.774;8.732;2023-11-21T09:00:12;23.30;83.60
8002;DHT22;4046;48.774;8.732;2023-11-21T09:02:41;23.40;83.70
8002;DHT22;4046;48.774;8.732;2023-11-21T09:05:11;23.30;83.60
8002;DHT22;4046;48.774;8.732;2023-11-21T09:07:39;23.30;83.60
8002;DHT22;4046;48.774;8.732;2023-11-21T09:10:05;23.30;83.60
8002;DHT22;4046;48.774;8.732;2023-11-21T09:12:36;23.30;83.60
8002;DHT22;4046;48.774;8.732;2023-11-21T09:15:06;23.30;83.60
8002;DHT22;4046;48.774;8.732;2023-11-21T09:17:33;23.30;83.70
8002;DHT22;4046;48.774;8.732;2023-11-21T09:19:59;23.30;83.70
8002;DHT22;4046;48.774;8.732;2023-11-21T09:22:25;23.30;83.70
8002;DHT22;4046;48.774;8.732;2023-11-21T09:24:51;23.30;84.50
8002;DHT22;4046;48.774;8.732;2023-11-21T09:27:18;23.30;83.70
8002;DHT22;4046;48.774;8.732;2023-11-21T09:29:44;23.50;83.90
8002;DHT22;4046;48.774;8.732;2023-11-21T09:32:10;23.20;83.70
8002;DHT22;4046;48.774;8.732;2023-11-21T09:34:40;23.20;83.70
8002;DHT22;4046;48.774;8.732;2023-11-21T09:37:05;23.40;83.90
8002;DHT22;4046;48.774;8.732;2023-11-21T09:39:32;23.20;83.70
8002;DHT22;4046;48.774;8.732;2023-11-21T09:42:10;23.30;83.80
8002;DHT22;4046;48.774;8.732;2023-11-21T09:45:10;23.20;83.80
8002;DHT22;4046;48.774;8.732;2023-11-21T09:47:38;23.20;83.80
8002;DHT22;4046;48.774;8.732;2023-11-21T09:50:06;23.20;83.70
8002;DHT22;4046;48.774;8.732;2023-11-21T09:52:46;23.20;83.70
8002;DHT22;4046;48.774;8.732;2023-11-21T09:55:16;23.20;83.80
8002;DHT22;4046;48.774;8.732;2023-11-21T09:57:45;23.20;83.80
8002;DHT22;4046;48.774;8.732;2023-11-21T10:00:11;23.20;83.80
8002;DHT22;4046;48.774;8.732;2023-11-21T10:02:38;23.20;83.80
8002;DHT22;4046;48.774;8.732;2023-11-21T10:05:06;23.20;83.80
8002;DHT22;4046;48.774;8.732;2023-11-21T10:07:35;23.20;83.80
8002;DHT22;4046;48.774;8.732;2023-11-21T10:10:02;23.20;83.80
8002;DHT22;4046;48.774;8.732;2023-11-21T10:12:28;23.20;83.80
8002;DHT22;4046;48.774;8.732;2023-11-21T10:14:58;23.20;83.80
8002;DHT22;4046;48.774;8.732;2023-11-21T10:17:27;23.20;83.80
8002;DHT22;4046;48.774;8.732;2023-11-21T10:19:57;23.20;83.80
8002;DHT22;4046;48.774;8.732;2023-11-21T10:22:23;23.20;83.80
8002;DHT22;4046;48.774;8.732;2023-11-21T10:24:49;23.20;83.80
8002;DHT22;4046;48.774;8.732;2023-11-21T10:27:15;23.20;83.80
8002;DHT22;4046;48.774;8.732;2023-11-21T10:29:40;23.20;83.80
8002;DHT22;4046;48.774;8.732;2023-11-21T10:32:07;23.20;83.80
8002;DHT22;4046;48.774;8.732;2023-11-21T10:34:33;23.20;83.80
8002;DHT22;4046;48.774;8.732;2023-11-21T10:37:11;23.20;83.80
8002;DHT22;4046;48.774;8.732;2023-11-21T10:39:37;23.20;83.80
8002;DHT22;4046;48.774;8.732;2023-11-21T10:42:04;23.20;83.80
8002;DHT22;4046;48.774;8.732;2023-11-21T10:44:30;23.20;83.80
8002;DHT22;4046;48.774;8.732;2023-11-21T10:46:55;23.20;83.80
8002;DHT22;4046;48.774;8.732;2023-11-21T10:49:24;23.20;83.80
8002;DHT22;4046;48.774;8.732;2023-11-21T10:51:56;23.10;83.70
8002;DHT22;4046;48.774;8.732;2023-11-21T10:54:23;23.10;83.80
8002;DHT22;4046;48.774;8.732;2023-11-21T10:56:51;23.10;83.80
8002;DHT22;4046;48.774;8.732;2023-11-21T10:59:19;23.10;83.80
8002;DHT22;4046;48.774;8.732;2023-11-21T11:01:46;23.10;83.80
8002;DHT22;4046;48.774;8.732;2023-11-21T11:04:15;23.10;83.70
8002;DHT22;4046;48.774;8.732;2023-11-21T11:06:44;23.20;83.90
8002;DHT22;4046;48.774;8.732;2023-11-21T11:09:13;23.10;83.80
8002;DHT22;4046;48.774;8.732;2023-11-21T11:11:40;23.10;83.80
8002;DHT22;4046;48.774;8.732;2023-11-21T11:14:13;23.10;83.70
8002;DHT22;4046;48.774;8.732;2023-11-21T11:16:40;23.30;84.00
8002;DHT22;4046;48.774;8.732;2023-11-21T11:19:10;23.10;83.70
8002;DHT22;4046;48.774;8.732;2023-11-21T11:24:44;23.10;83.70
8002;DHT22;4046;48.774;8.732;2023-11-21T11:30:11;23.10;83.80
8002;DHT22;4046;48.774;8.732;2023-11-21T11:35:32;23.10;83.70
8002;DHT22;4046;48.774;8.732;2023-11-21T11:37:59;23.10;83.80
8002;DHT22;4046;48.774;8.732;2023-11-21T11:40:41;23.10;83.80
8002;DHT22;4046;48.774;8.732;2023-11-21T11:43:10;23.10;83.80
8002;DHT22;4046;48.774;8.732;2023-11-21T11:45:36;23.10;83.80
8002;DHT22;4046;48.774;8.732;2023-11-21T11:48:07;23.10;83.80
8002;DHT22;4046;48.774;8.732;2023-11-21T11:50:33;23.10;83.80
8002;DHT22;4046;48.774;8.732;2023-11-21T11:53:26;23.10;83.80
8002;DHT22;4046;48.774;8.732;2023-11-21T11:56:31;23.10;83.80
8002;DHT22;4046;48.774;8.732;2023-11-21T11:59:01;23.10;83.80
8002;DHT22;4046;48.774;8.732;2023-11-21T12:01:29;23.10;83.80
8002;DHT22;4046;48.774;8.732;2023-11-21T12:06:51;23.00;83.80
8002;DHT22;4046;48.774;8.732;2023-11-21T12:09:22;23.00;83.80
8002;DHT22;4046;48.774;8.732;2023-11-21T12:11:49;23.00;83.80
8002;DHT22;4046;48.774;8.732;2023-11-21T12:14:16;22.70;83.50
8002;DHT22;4046;48.774;8.732;2023-11-21T12:16:42;23.20;83.90
8002;DHT22;4046;48.774;8.732;2023-11-21T12:19:13;23.10;83.80
8002;DHT22;4046;48.774;8.732;2023-11-21T12:21:40;23.10;83.80
8002;DHT22;4046;48.774;8.732;2023-11-21T12:24:07;23.00;83.70
8002;DHT22;4046;48.774;8.732;2023-11-21T12:26:35;23.10;83.80
8002;DHT22;4046;48.774;8.732;2023-11-21T12:29:02;23.10;83.80
8002;DHT22;4046;48.774;8.732;2023-11-21T12:31:30;23.10;83.90
8002;DHT22;4046;48.774;8.732;2023-11-21T12:33:56;23.00;83.80
8002;DHT22;4046;48.774;8.732;2023-11-21T12:36:23;23.10;83.80
8002;DHT22;4046;48.774;8.732;2023-11-21T12:38:50;23.20;83.90
8002;DHT22;4046;48.774;8.732;2023-11-21T12:41:16;23.00;83.80
8002;DHT22;4046;48.774;8.732;2023-11-21T12:43:43;23.00;83.80
8002;DHT22;4046;48.774;8.732;2023-11-21T12:46:10;23.00;83.80
8002;DHT22;4046;48.774;8.732;2023-11-21T12:48:43;23.00;83.80
8002;DHT22;4046;48.774;8.732;2023-11-21T12:51:10;23.00;83.80
8002;DHT22;4046;48.774;8.732;2023-11-21T12:53:37;23.00;83.70
8002;DHT22;4046;48.774;8.732;2023-11-21T12:56:09;23.00;83.80
8002;DHT22;4046;48.774;8.732;2023-11-21T12:58:36;23.00;83.80
8002;DHT22;4046;48.774;8.732;2023-11-21T13:01:02;23.00;83.80
8002;DHT22;4046;48.774;8.732;2023-11-21T13:03:31;23.00;83.80
8002;DHT22;4046;48.774;8.732;2023-11-21T13:05:58;23.20;84.00
8002;DHT22;4046;48.774;8.732;2023-11-21T13:08:26;23.00;83.70
8002;DHT22;4046;48.774;8.732;2023-11-21T13:10:53;23.00;83.80
8002;DHT22;4046;48.774;8.732;2023-11-21T13:13:23;23.00;83.80
8002;DHT22;4046;48.774;8.732;2023-11-21T13:15:54;23.00;83.70
8002;DHT22;4046;48.774;8.732;2023-11-21T13:18:24;23.00;83.80
8002;DHT22;4046;48.774;8.732;2023-11-21T13:20:50;23.00;83.80
8002;DHT22;4046;48.774;8.732;2023-11-21T13:23:16;23.00;83.70
8002;DHT22;4046;48.774;8.732;2023-11-21T13:25:42;23.00;83.70
8002;DHT22;4046;48.774;8.732;2023-11-21T13:28:11;23.00;83.70
8002;DHT22;4046;48.774;8.732;2023-11-21T13:30:38;23.00;83.80
8002;DHT22;4046;48.774;8.732;2023-11-21T13:33:07;23.00;83.80
8002;DHT22;4046;48.774;8.732;2023-11-21T13:35:39;23.00;83.80
8002;DHT22;4046;48.774;8.732;2023-11-21T13:38:10;23.00;83.80
8002;DHT22;4046;48.774;8.732;2023-11-21T13:40:37;23.00;83.80
8002;DHT22;4046;48.774;8.732;2023-11-21T13:43:15;23.00;83.80
8002;DHT22;4046;48.774;8.732;2023-11-21T13:45:43;23.00;83.80
8002;DHT22;4046;48.774;8.732;2023-11-21T13:48:10;23.00;83.80
8002;DHT22;4046;48.774;8.732;2023-11-21T13:50:36;23.00;83.80
8002;DHT22;4046;48.774;8.732;2023-11-21T13:53:03;23.00;83.80
8002;DHT22;4046;48.774;8.732;2023-11-21T13:55:46;23.00;83.80
8002;DHT22;4046;48.774;8.732;2023-11-21T13:58:13;23.00;83.80
8002;DHT22;4046;48.774;8.732;2023-11-21T14:00:45;23.10;84.00
8002;DHT22;4046;48.774;8.732;2023-11-21T14:03:12;23.00;83.80
8002;DHT22;4046;48.774;8.732;2023-11-21T14:05:48;23.00;83.80
8002;DHT22;4046;48.774;8.732;2023-11-21T14:08:20;23.00;83.90
8002;DHT22;4046;48.774;8.732;2023-11-21T14:10:47;23.00;83.80
8002;DHT22;4046;48.774;8.732;2023-11-21T14:13:19;22.90;83.80
8002;DHT22;4046;48.774;8.732;2023-11-21T14:15:49;23.00;83.80
8002;DHT22;4046;48.774;8.732;2023-11-21T14:18:17;23.00;83.80
8002;DHT22;4046;48.774;8.732;2023-11-21T14:20:51;23.00;83.80
8002;DHT22;4046;48.774;8.732;2023-11-21T14:23:17;23.00;83.80
8002;DHT22;4046;48.774;8.732;2023-11-21T14:25:43;23.00;83.80
8002;DHT22;4046;48.774;8.732;2023-11-21T14:28:09;23.00;83.80
8002;DHT22;4046;48.774;8.732;2023-11-21T14:30:37;23.00;83.80
8002;DHT22;4046;48.774;8.732;2023-11-21T14:33:05;23.00;83.90
8002;DHT22;4046;48.774;8.732;2023-11-21T14:35:31;23.00;83.90
8002;DHT22;4046;48.774;8.732;2023-11-21T14:38:01;23.00;83.90
8002;DHT22;4046;48.774;8.732;2023-11-21T14:40:30;23.00;83.80
8002;DHT22;4046;48.774;8.732;2023-11-21T14:43:00;23.00;83.80
8002;DHT22;4046;48.774;8.732;2023-11-21T14:45:26;23.00;83.80
8002;DHT22;4046;48.774;8.732;2023-11-21T14:47:52;23.00;83.80
8002;DHT22;4046;48.774;8.732;2023-11-21T14:50:30;23.00;83.90
8002;DHT22;4046;48.774;8.732;2023-11-21T14:53:02;23.00;83.90
8002;DHT22;4046;48.774;8.732;2023-11-21T14:55:32;23.00;83.90
8002;DHT22;4046;48.774;8.732;2023-11-21T14:58:05;22.90;83.80
8002;DHT22;4046;48.774;8.732;2023-11-21T15:00:31;23.00;83.80
8002;DHT22;4046;48.774;8.732;2023-11-21T15:03:06;23.00;83.90
8002;DHT22;4046;48.774;8.732;2023-11-21T15:05:34;23.00;83.90
8002;DHT22;4046;48.774;8.732;2023-11-21T15:08:01;23.00;83.80
8002;DHT22;4046;48.774;8.732;2023-11-21T15:10:47;23.00;83.80
8002;DHT22;4046;48.774;8.732;2023-11-21T15:13:19;23.20;84.10
8002;DHT22;4046;48.774;8.732;2023-11-21T15:15:44;23.00;83.90
8002;DHT22;4046;48.774;8.732;2023-11-21T15:18:10;23.20;84.10
8002;DHT22;4046;48.774;8.732;2023-11-21T15:20:41;22.90;83.80
8002;DHT22;4046;48.774;8.732;2023-11-21T15:23:08;23.00;83.90
8002;DHT22;4046;48.774;8.732;2023-11-21T15:25:34;23.00;83.90
8002;DHT22;4046;48.774;8.732;2023-11-21T15:28:01;23.00;83.90
8002;DHT22;4046;48.774;8.732;2023-11-21T15:30:28;23.00;83.80
8002;DHT22;4046;48.774;8.732;2023-11-21T15:32:58;23.00;83.80
8002;DHT22;4046;48.774;8.732;2023-11-21T15:35:24;23.00;83.90
8002;DHT22;4046;48.774;8.732;2023-11-21T15:37:49;23.00;83.90
8002;DHT22;4046;48.774;8.732;2023-11-21T15:40:15;23.00;83.90
8002;DHT22;4046;48.774;8.732;2023-11-21T15:42:42;23.00;83.90
8002;DHT22;4046;48.774;8.732;2023-11-21T15:45:09;23.00;83.80
8002;DHT22;4046;48.774;8.732;2023-11-21T15:47:35;23.00;83.80
8002;DHT22;4046;48.774;8.732;2023-11-21T15:50:01;23.00;83.90
8002;DHT22;4046;48.774;8.732;2023-11-21T15:52:29;23.00;83.90
8002;DHT22;4046;48.774;8.732;2023-11-21T15:54:55;23.00;83.80
8002;DHT22;4046;48.774;8.732;2023-11-21T15:57:21;23.00;83.80
8002;DHT22;4046;48.774;8.732;2023-11-21T15:59:48;23.00;83.80
8002;DHT22;4046;48.774;8.732;2023-11-21T16:02:14;23.00;83.80
8002;DHT22;4046;48.774;8.732;2023-11-21T16:04:41;23.00;83.80
8002;DHT22;4046;48.774;8.732;2023-11-21T16:07:08;23.00;83.80
8002;DHT22;4046;48.774;8.732;2023-11-21T16:09:35;23.00;83.80
8002;DHT22;4046;48.774;8.732;2023-11-21T16:12:04;23.00;83.80
8002;DHT22;4046;48.774;8.732;2023-11-21T16:14:35;23.00;83.80